createdAt,value
2022-11-15T00:01:16.912Z,55.02
2022-11-15T00:04:06.310Z,56.59
2022-11-15T00:06:55.149Z,55.62
2022-11-15T00:09:46.078Z,55.95
2022-11-15T00:12:34.022Z,56.12
2022-11-15T00:15:23.122Z,55.43
2022-11-15T00:18:19.108Z,54.45
2022-11-15T00:21:12.608Z,55.07
2022-11-15T00:24:01.698Z,55.78
2022-11-15T00:26:49.575Z,55.73
2022-11-15T00:29:40.759Z,55.06
2022-11-15T00:32:29.119Z,55.01
2022-11-15T00:35:18.047Z,55.47
2022-11-15T00:38:08.830Z,55.15
2022-11-15T00:40:58.029Z,58.22
2022-11-15T00:43:46.877Z,55.28
2022-11-15T00:46:34.833Z,55.35
2022-11-15T00:49:25.869Z,54.99
2022-11-15T00:52:15.596Z,54.83
2022-11-15T00:55:04.368Z,54.70
2022-11-15T00:57:52.317Z,54.74
2022-11-15T01:00:40.240Z,54.84
2022-11-15T01:03:31.456Z,54.85
2022-11-15T01:06:22.379Z,54.76
2022-11-15T01:09:10.192Z,54.91
2022-11-15T01:11:59.924Z,54.44
2022-11-15T01:14:47.571Z,55.01
2022-11-15T01:17:35.534Z,54.33
2022-11-15T01:20:23.669Z,54.17
2022-11-15T01:23:12.600Z,54.21
2022-11-15T01:26:05.076Z,53.65
2022-11-15T01:28:54.527Z,53.89
2022-11-15T01:31:44.346Z,53.93
2022-11-15T01:34:32.291Z,53.78
2022-11-15T01:37:20.616Z,53.36
2022-11-15T01:40:08.857Z,53.89
2022-11-15T01:42:56.809Z,52.91
2022-11-15T01:45:58.791Z,52.95
2022-11-15T01:48:47.241Z,53.11
2022-11-15T01:51:36.602Z,52.84
2022-11-15T01:54:26.325Z,52.63
2022-11-15T01:57:15.928Z,52.65
2022-11-15T02:00:06.689Z,52.68
2022-11-15T02:02:55.002Z,52.85
2022-11-15T02:05:43.978Z,52.26
2022-11-15T02:08:33.631Z,52.37
2022-11-15T02:11:22.103Z,52.48
2022-11-15T02:14:11.695Z,52.50
2022-11-15T02:17:10.638Z,52.51
2022-11-15T02:20:01.773Z,52.40
2022-11-15T02:23:40.131Z,52.48
2022-11-15T02:26:47.193Z,52.36
2022-11-15T02:29:50.238Z,51.83
2022-11-15T02:33:12.954Z,52.14
2022-11-15T02:36:06.529Z,52.08
2022-11-15T02:39:38.735Z,52.05
2022-11-15T02:42:53.448Z,52.17
2022-11-15T02:45:47.342Z,52.00
2022-11-15T02:48:36.787Z,52.06
2022-11-15T02:51:24.988Z,52.01
2022-11-15T02:54:25.137Z,50.91
2022-11-15T02:57:21.921Z,51.01
2022-11-15T03:00:13.151Z,51.62
2022-11-15T03:03:12.858Z,51.18
2022-11-15T03:06:29.349Z,51.24
2022-11-15T03:09:41.147Z,51.35
2022-11-15T03:12:38.434Z,50.86
2022-11-15T03:15:42.027Z,51.04
2022-11-15T03:18:44.887Z,50.47
2022-11-15T03:21:35.659Z,50.55
2022-11-15T03:24:27.560Z,50.70
2022-11-15T03:27:24.699Z,50.79
2022-11-15T03:30:13.900Z,49.51
2022-11-15T03:33:03.280Z,46.58
2022-11-15T03:35:52.984Z,48.35
2022-11-15T03:38:41.748Z,40.74
2022-11-15T03:41:56.638Z,44.39
2022-11-15T03:45:00.310Z,42.62
2022-11-15T03:47:56.421Z,46.86
2022-11-15T03:50:48.881Z,42.42
2022-11-15T03:53:37.293Z,46.78
2022-11-15T03:56:25.639Z,43.40
2022-11-15T03:59:14.078Z,45.04
2022-11-15T04:02:03.700Z,33.92
2022-11-15T04:04:52.337Z,42.16
2022-11-15T04:07:40.494Z,44.12
2022-11-15T04:10:28.990Z,36.78
2022-11-15T04:13:17.296Z,35.51
2022-11-15T04:16:06.639Z,35.90
2022-11-15T04:19:14.117Z,35.42
2022-11-15T04:22:21.060Z,35.39
2022-11-15T04:25:09.022Z,32.42
2022-11-15T04:27:58.032Z,33.06
2022-11-15T04:30:46.147Z,37.28
2022-11-15T04:33:34.484Z,33.04
2022-11-15T04:36:41.489Z,40.04
2022-11-15T04:39:29.138Z,30.90
2022-11-15T04:42:17.051Z,33.34
2022-11-15T04:45:05.140Z,38.36
2022-11-15T04:47:53.416Z,35.03
2022-11-15T04:50:42.272Z,36.79
2022-11-15T04:53:31.678Z,35.50
2022-11-15T04:56:20.072Z,28.91
2022-11-15T04:59:09.725Z,36.07
2022-11-15T05:01:57.887Z,30.94
2022-11-15T05:04:46.549Z,32.54
2022-11-15T05:07:35.606Z,33.48
2022-11-15T05:10:25.009Z,35.81
2022-11-15T05:13:13.204Z,34.45
2022-11-15T05:16:01.597Z,35.28
2022-11-15T05:18:50.445Z,34.82
2022-11-15T05:21:39.539Z,34.74
2022-11-15T05:24:27.844Z,33.15
2022-11-15T05:27:15.850Z,26.87
2022-11-15T05:30:03.612Z,35.50
2022-11-15T05:32:51.552Z,32.08
2022-11-15T05:35:50.839Z,33.43
2022-11-15T05:38:39.508Z,29.16
2022-11-15T05:41:38.284Z,29.65
2022-11-15T05:44:28.587Z,29.09
2022-11-15T05:47:22.109Z,28.93
2022-11-15T05:50:11.269Z,29.85
2022-11-15T05:53:04.958Z,28.67
2022-11-15T05:55:54.184Z,30.09
2022-11-15T05:58:41.825Z,30.61
2022-11-15T06:01:30.554Z,35.42
2022-11-15T06:04:22.230Z,26.95
2022-11-15T06:07:10.395Z,31.37
2022-11-15T06:09:58.879Z,30.09
2022-11-15T06:12:47.265Z,27.01
2022-11-15T06:15:38.171Z,27.96
2022-11-15T06:18:25.851Z,27.45
2022-11-15T06:21:13.864Z,29.09
2022-11-15T06:24:01.839Z,28.74
2022-11-15T06:26:50.001Z,31.17
2022-11-15T06:29:37.945Z,30.23
2022-11-15T06:32:26.242Z,26.44
2022-11-15T06:35:15.570Z,25.23
2022-11-15T06:38:13.693Z,27.36
2022-11-15T06:41:09.877Z,25.37
2022-11-15T06:43:57.684Z,29.16
2022-11-15T06:46:45.812Z,25.56
2022-11-15T06:49:33.788Z,26.10
2022-11-15T06:52:22.279Z,25.76
2022-11-15T06:55:11.067Z,24.56
2022-11-15T06:57:59.364Z,28.79
2022-11-15T07:00:47.449Z,25.56
2022-11-15T07:03:42.064Z,27.43
2022-11-15T07:06:30.249Z,26.55
2022-11-15T07:09:18.526Z,29.46
2022-11-15T07:12:08.007Z,28.17
2022-11-15T07:14:56.148Z,26.47
2022-11-15T07:17:45.247Z,29.67
2022-11-15T07:20:33.698Z,33.06
2022-11-15T07:23:23.127Z,29.65
2022-11-15T07:26:11.326Z,29.50
2022-11-15T07:28:59.294Z,32.06
2022-11-15T07:31:47.298Z,28.28
2022-11-15T07:34:36.598Z,30.13
2022-11-15T07:37:25.516Z,26.66
2022-11-15T07:40:13.784Z,27.96
2022-11-15T07:43:09.082Z,28.43
2022-11-15T07:45:59.440Z,27.64
2022-11-15T07:48:47.820Z,29.30
2022-11-15T07:51:35.934Z,29.53
2022-11-15T07:54:23.940Z,31.63
2022-11-15T07:57:12.321Z,29.31
2022-11-15T08:00:00.150Z,29.07
2022-11-15T08:02:48.712Z,30.20
2022-11-15T08:05:38.391Z,28.87
2022-11-15T08:08:26.570Z,27.23
2022-11-15T08:11:14.152Z,28.76
2022-11-15T08:14:02.113Z,28.28
2022-11-15T08:16:50.899Z,31.79
2022-11-15T08:19:39.113Z,28.29
2022-11-15T08:22:28.724Z,29.04
2022-11-15T08:25:16.627Z,28.90
2022-11-15T08:28:07.320Z,29.75
2022-11-15T08:30:56.681Z,31.89
2022-11-15T08:33:45.056Z,28.67
2022-11-15T08:36:40.686Z,29.03
2022-11-15T08:39:32.667Z,30.16
2022-11-15T08:42:20.370Z,29.70
2022-11-15T08:45:10.203Z,28.33
2022-11-15T08:47:58.779Z,30.88
2022-11-15T08:50:46.671Z,30.86
2022-11-15T08:53:35.334Z,31.48
2022-11-15T08:56:24.174Z,32.30
2022-11-15T08:59:12.364Z,32.28
2022-11-15T09:02:00.553Z,32.74
2022-11-15T09:04:48.560Z,34.68
2022-11-15T09:07:37.767Z,33.87
2022-11-15T09:10:27.044Z,34.17
2022-11-15T09:13:15.641Z,34.97
2022-11-15T09:16:04.768Z,34.83
2022-11-15T09:18:52.456Z,34.92
2022-11-15T09:21:41.522Z,34.08
2022-11-15T09:24:29.401Z,34.08
2022-11-15T09:27:19.138Z,34.67
2022-11-15T09:30:08.804Z,35.08
2022-11-15T09:32:57.473Z,35.94
2022-11-15T09:35:44.795Z,36.37
2022-11-15T09:38:34.241Z,36.04
2022-11-15T09:42:02.015Z,36.55
2022-11-15T09:44:49.949Z,36.05
2022-11-15T09:48:04.898Z,36.83
2022-11-15T09:51:05.884Z,36.63
2022-11-15T09:56:44.183Z,36.15
2022-11-15T09:59:20.263Z,35.91
2022-11-15T10:02:08.146Z,36.57
2022-11-15T10:04:40.500Z,36.88
2022-11-15T10:07:21.780Z,37.02
2022-11-15T10:10:04.280Z,36.82
2022-11-15T10:12:35.474Z,36.32
2022-11-15T10:15:17.450Z,36.46
2022-11-15T10:18:12.086Z,37.00
2022-11-15T10:20:52.163Z,36.53
2022-11-15T10:23:26.301Z,36.74
2022-11-15T10:26:07.043Z,36.95
2022-11-15T10:28:37.486Z,35.76
2022-11-15T10:31:28.895Z,36.80
2022-11-15T10:34:28.967Z,36.38
2022-11-15T10:37:06.648Z,36.94
2022-11-15T10:39:37.161Z,37.28
2022-11-15T10:42:43.434Z,37.40
2022-11-15T10:45:34.828Z,37.65
2022-11-15T10:48:17.284Z,37.55
2022-11-15T10:50:49.733Z,37.47
2022-11-15T10:53:46.795Z,37.76
2022-11-15T10:56:23.542Z,37.93
2022-11-15T10:59:00.148Z,37.47
2022-11-15T11:01:34.752Z,37.48
2022-11-15T11:04:08.675Z,37.26
2022-11-15T11:06:59.599Z,37.73
2022-11-15T11:09:45.593Z,38.08
2022-11-15T11:12:18.131Z,38.01
2022-11-15T11:14:49.347Z,38.03
2022-11-15T11:17:45.051Z,38.19
2022-11-15T11:20:33.544Z,38.82
2022-11-15T11:23:59.820Z,39.44
2022-11-15T11:26:39.544Z,39.32
2022-11-15T11:29:42.589Z,38.96
2022-11-15T11:32:59.335Z,38.67
2022-11-15T11:35:49.812Z,38.57
2022-11-15T11:38:27.798Z,38.60
2022-11-15T11:41:03.683Z,38.65
2022-11-15T11:43:39.879Z,38.46
2022-11-15T11:46:31.893Z,39.00
2022-11-15T11:49:28.097Z,38.82
2022-11-15T11:52:18.416Z,39.06
2022-11-15T11:55:16.145Z,39.20
2022-11-15T11:57:57.010Z,39.59
2022-11-15T12:00:35.851Z,39.54
2022-11-15T12:03:22.117Z,39.59
2022-11-15T12:06:25.874Z,39.57
2022-11-15T12:09:09.369Z,40.32
2022-11-15T12:12:03.996Z,40.63
2022-11-15T12:14:37.794Z,40.64
2022-11-15T12:17:09.402Z,41.63
2022-11-15T12:19:40.425Z,40.96
2022-11-15T12:22:50.127Z,41.15
2022-11-15T12:25:40.917Z,41.13
2022-11-15T12:28:58.398Z,41.25
2022-11-15T12:31:38.858Z,41.82
2022-11-15T12:34:33.827Z,41.76
2022-11-15T12:37:05.675Z,41.97
2022-11-15T12:39:54.452Z,41.49
2022-11-15T12:42:27.281Z,41.90
2022-11-15T12:44:57.743Z,41.29
2022-11-15T12:47:30.993Z,41.80
2022-11-15T12:50:01.508Z,41.65
2022-11-15T12:52:31.929Z,41.63
2022-11-15T12:55:04.600Z,41.68
2022-11-15T12:57:39.850Z,41.30
2022-11-15T13:00:18.665Z,40.86
2022-11-15T13:02:55.536Z,41.46
2022-11-15T13:05:32.178Z,41.48
2022-11-15T13:08:02.979Z,41.08
2022-11-15T13:10:37.801Z,41.44
2022-11-15T13:13:12.379Z,41.38
2022-11-15T13:16:05.265Z,40.47
2022-11-15T13:18:40.592Z,40.77
2022-11-15T13:21:45.898Z,41.03
2022-11-15T13:24:18.798Z,40.74
2022-11-15T13:26:49.766Z,40.97
2022-11-15T13:29:23.607Z,40.65
2022-11-15T13:31:58.627Z,40.29
2022-11-15T13:34:54.041Z,40.42
2022-11-15T13:37:25.953Z,41.07
2022-11-15T13:39:56.843Z,40.91
2022-11-15T13:42:33.955Z,41.02
2022-11-15T13:45:09.969Z,41.08
2022-11-15T13:47:40.859Z,41.11
2022-11-15T13:50:15.994Z,40.67
2022-11-15T13:52:51.425Z,40.90
2022-11-15T13:55:27.157Z,41.45
2022-11-15T13:58:01.620Z,40.77
2022-11-15T14:00:38.540Z,40.67
2022-11-15T14:03:28.739Z,40.27
2022-11-15T14:06:17.978Z,39.78
2022-11-15T14:09:08.160Z,39.59
2022-11-15T14:11:40.366Z,39.47
2022-11-15T14:14:11.482Z,39.31
2022-11-15T14:16:46.842Z,39.50
2022-11-15T14:19:38.818Z,39.61
2022-11-15T14:22:25.428Z,39.45
2022-11-15T14:25:11.213Z,39.45
2022-11-15T14:27:43.607Z,39.70
2022-11-15T14:30:21.441Z,39.40
2022-11-15T14:32:53.463Z,40.02
2022-11-15T14:35:27.060Z,39.90
2022-11-15T14:37:59.573Z,40.06
2022-11-15T14:40:30.691Z,40.42
2022-11-15T14:43:01.779Z,40.65
2022-11-15T14:45:33.561Z,40.27
2022-11-15T14:48:06.073Z,40.42
2022-11-15T14:50:40.060Z,41.33
2022-11-15T14:53:16.738Z,40.83
2022-11-15T14:55:49.648Z,40.75
2022-11-15T14:58:22.000Z,40.48
2022-11-15T15:00:52.890Z,40.76
2022-11-15T15:03:23.893Z,40.81
2022-11-15T15:05:56.164Z,40.44
2022-11-15T15:08:28.256Z,40.50
2022-11-15T15:10:58.921Z,40.36
2022-11-15T15:13:31.319Z,40.69
2022-11-15T15:16:04.381Z,40.52
2022-11-15T15:18:37.429Z,40.49
2022-11-15T15:21:24.929Z,40.56
2022-11-15T15:24:00.089Z,40.39
2022-11-15T15:26:32.458Z,40.49
2022-11-15T15:29:03.448Z,39.87
2022-11-15T15:31:35.638Z,40.03
2022-11-15T15:34:13.699Z,40.32
2022-11-15T15:36:47.948Z,40.99
2022-11-15T15:39:20.435Z,40.84
2022-11-15T15:41:54.872Z,40.85
2022-11-15T15:44:28.440Z,41.03
2022-11-15T15:47:01.587Z,41.75
2022-11-15T15:49:32.579Z,41.75
2022-11-15T15:52:04.827Z,41.98
2022-11-15T15:54:35.941Z,42.11
2022-11-15T15:57:08.498Z,41.74
2022-11-15T15:59:39.601Z,41.65
2022-11-15T16:02:15.245Z,42.17
2022-11-15T16:04:46.953Z,42.26
2022-11-15T16:07:30.467Z,41.98
2022-11-15T16:10:06.103Z,41.82
2022-11-15T16:12:40.381Z,41.78
2022-11-15T16:15:12.283Z,41.81
2022-11-15T16:17:48.657Z,41.74
2022-11-15T16:20:39.028Z,41.95
2022-11-15T16:23:12.372Z,42.35
2022-11-15T16:26:23.727Z,43.25
2022-11-15T16:28:56.659Z,43.26
2022-11-15T16:31:28.486Z,42.73
2022-11-15T16:33:59.781Z,42.99
2022-11-15T16:36:33.001Z,42.90
2022-11-15T16:39:07.552Z,42.92
2022-11-15T16:41:39.017Z,42.71
2022-11-15T16:44:09.381Z,43.05
2022-11-15T16:46:40.127Z,42.75
2022-11-15T16:49:16.825Z,42.88
2022-11-15T16:51:52.120Z,43.37
2022-11-15T16:54:23.786Z,43.25
2022-11-15T16:56:53.891Z,42.95
2022-11-15T16:59:25.634Z,42.72
2022-11-15T17:01:56.467Z,43.21
2022-11-15T17:04:30.136Z,43.28
2022-11-15T17:07:00.330Z,42.80
2022-11-15T17:09:31.452Z,42.92
2022-11-15T17:12:02.940Z,42.66
2022-11-15T17:14:32.883Z,42.62
2022-11-15T17:17:02.958Z,42.75
2022-11-15T17:19:34.287Z,43.10
2022-11-15T17:22:04.269Z,44.30
2022-11-15T17:24:34.344Z,43.04
2022-11-15T17:27:05.920Z,43.31
2022-11-15T17:29:36.120Z,43.30
2022-11-15T17:32:05.629Z,42.99
2022-11-15T17:34:35.652Z,43.63
2022-11-15T17:37:06.443Z,43.20
2022-11-15T17:39:36.372Z,43.77
2022-11-15T17:42:07.251Z,44.06
2022-11-15T17:44:38.005Z,43.74
2022-11-15T17:47:08.058Z,43.91
2022-11-15T17:49:41.835Z,43.45
2022-11-15T17:52:12.173Z,44.17
2022-11-15T17:54:42.158Z,44.62
2022-11-15T17:57:14.056Z,44.49
2022-11-15T17:59:44.242Z,44.02
2022-11-15T18:02:14.568Z,43.85
2022-11-15T18:04:44.456Z,44.22
2022-11-15T18:07:15.209Z,43.89
2022-11-15T18:09:48.380Z,44.20
2022-11-15T18:12:18.810Z,44.80
2022-11-15T18:14:48.702Z,44.05
2022-11-15T18:17:20.291Z,44.06
2022-11-15T18:19:50.544Z,44.03
2022-11-15T18:22:22.959Z,44.85
2022-11-15T18:24:53.134Z,44.69
2022-11-15T18:27:23.381Z,45.11
2022-11-15T18:29:53.314Z,45.52
2022-11-15T18:32:23.543Z,45.64
2022-11-15T18:34:53.512Z,44.90
2022-11-15T18:37:23.473Z,45.06
2022-11-15T18:39:54.213Z,45.61
2022-11-15T18:42:25.331Z,45.17
2022-11-15T18:44:55.687Z,45.06
2022-11-15T18:47:26.736Z,47.76
2022-11-15T18:50:02.071Z,45.99
2022-11-15T18:52:32.182Z,46.54
2022-11-15T18:55:02.057Z,45.98
2022-11-15T18:57:32.535Z,46.19
2022-11-15T19:00:02.569Z,46.40
2022-11-15T19:02:32.591Z,46.24
2022-11-15T19:05:02.547Z,45.98
2022-11-15T19:07:32.655Z,46.26
2022-11-15T19:10:02.563Z,46.28
2022-11-15T19:12:33.539Z,45.85
2022-11-15T19:15:08.895Z,46.12
2022-11-15T19:17:40.279Z,47.53
2022-11-15T19:20:10.652Z,47.23
2022-11-15T19:22:40.002Z,47.13
2022-11-15T19:25:11.288Z,45.70
2022-11-15T19:27:42.010Z,46.06
2022-11-15T19:30:12.612Z,45.77
2022-11-15T19:32:42.702Z,46.01
2022-11-15T19:35:12.651Z,46.04
2022-11-15T19:37:43.371Z,46.36
2022-11-15T19:40:15.582Z,46.70
2022-11-15T19:42:46.922Z,45.12
2022-11-15T19:45:18.822Z,46.91
2022-11-15T19:47:48.971Z,46.81
2022-11-15T19:50:20.691Z,46.25
2022-11-15T19:52:50.849Z,46.73
2022-11-15T19:55:21.931Z,46.67
2022-11-15T19:57:52.163Z,47.23
2022-11-15T20:00:23.190Z,46.96
2022-11-15T20:02:54.601Z,45.86
2022-11-15T20:05:25.746Z,47.32
2022-11-15T20:07:56.816Z,46.80
2022-11-15T20:10:27.620Z,46.19
2022-11-15T20:12:57.864Z,46.86
2022-11-15T20:15:28.386Z,46.85
2022-11-15T20:17:59.191Z,46.70
2022-11-15T20:20:29.775Z,47.87
2022-11-15T20:23:02.426Z,47.03
2022-11-15T20:25:33.943Z,47.46
2022-11-15T20:28:05.316Z,47.77
2022-11-15T20:30:36.645Z,48.05
2022-11-15T20:33:07.144Z,48.03
2022-11-15T20:35:37.654Z,47.85
2022-11-15T20:38:12.833Z,48.17
2022-11-15T20:40:43.165Z,47.47
2022-11-15T20:43:15.875Z,47.99
2022-11-15T20:45:47.898Z,48.77
2022-11-15T20:48:19.499Z,48.20
2022-11-15T20:50:50.166Z,48.21
2022-11-15T20:53:22.858Z,48.56
2022-11-15T20:55:53.748Z,48.88
2022-11-15T20:58:24.570Z,48.94
2022-11-15T21:00:58.830Z,48.21
2022-11-15T21:03:29.507Z,48.44
2022-11-15T21:05:59.643Z,49.27
2022-11-15T21:08:31.589Z,48.43
2022-11-15T21:11:21.130Z,48.44
2022-11-15T21:13:51.727Z,49.61
2022-11-15T21:16:21.658Z,49.06
2022-11-15T21:18:54.143Z,48.55
2022-11-15T21:21:25.429Z,46.21
2022-11-15T21:23:55.630Z,48.28
2022-11-15T21:26:26.328Z,47.88
2022-11-15T21:28:58.925Z,47.68
2022-11-15T21:31:31.089Z,47.58
2022-11-15T21:34:05.841Z,47.20
2022-11-15T21:36:36.198Z,47.25
2022-11-15T21:39:07.770Z,47.46
2022-11-15T21:41:38.236Z,48.04
2022-11-15T21:44:11.746Z,48.13
2022-11-15T21:46:42.398Z,48.27
2022-11-15T21:49:13.653Z,48.01
2022-11-15T21:51:44.053Z,48.88
2022-11-15T21:54:15.525Z,49.40
2022-11-15T21:56:47.866Z,48.70
2022-11-15T21:59:18.997Z,48.78
2022-11-15T22:02:09.198Z,48.96
2022-11-15T22:04:40.506Z,48.90
2022-11-15T22:07:12.190Z,48.44
2022-11-15T22:09:43.541Z,48.76
2022-11-15T22:12:14.975Z,48.97
2022-11-15T22:14:46.121Z,49.82
2022-11-15T22:17:16.286Z,49.62
2022-11-15T22:19:52.664Z,49.96
2022-11-15T22:22:23.311Z,49.36
2022-11-15T22:24:53.203Z,49.55
2022-11-15T22:27:24.372Z,50.19
2022-11-15T22:29:55.324Z,49.94
2022-11-15T22:32:25.238Z,49.57
2022-11-15T22:34:56.381Z,49.00
2022-11-15T22:37:29.294Z,49.89
2022-11-15T22:40:00.926Z,51.57
2022-11-15T22:42:32.063Z,47.01
2022-11-15T22:45:04.514Z,47.26
2022-11-15T22:47:35.676Z,48.55
2022-11-15T22:50:08.645Z,49.02
2022-11-15T22:52:40.430Z,49.36
2022-11-15T22:55:13.032Z,49.36
2022-11-15T22:57:52.053Z,49.65
2022-11-15T23:00:24.396Z,49.79
2022-11-15T23:02:54.496Z,48.83
2022-11-15T23:05:25.332Z,50.79
2022-11-15T23:07:59.682Z,50.86
2022-11-15T23:10:49.753Z,50.96
2022-11-15T23:13:20.652Z,50.47
2022-11-15T23:16:11.395Z,51.12
2022-11-15T23:19:13.675Z,49.76
2022-11-15T23:22:06.101Z,51.92
2022-11-15T23:24:37.541Z,51.38
2022-11-15T23:27:09.249Z,50.79
2022-11-15T23:29:59.228Z,50.87
2022-11-15T23:32:47.717Z,50.66
2022-11-15T23:35:18.394Z,49.80
2022-11-15T23:37:48.695Z,50.50
2022-11-15T23:40:18.879Z,50.01
2022-11-15T23:42:50.161Z,49.86
2022-11-15T23:45:20.547Z,50.09
2022-11-15T23:47:50.541Z,49.82
2022-11-15T23:50:21.766Z,50.28
2022-11-15T23:52:53.768Z,49.86
2022-11-15T23:55:25.154Z,49.40
2022-11-15T23:57:55.805Z,49.52
